Time;durP1;ratioP1;P1;durP2;ratioP2;P2;SDS_P1;SDS_P2;PMS_P1;PMS_P2;Temp;Humidity;BMP_temperature;BMP_pressure;BME280_temperature;BME280_humidity;BME280_pressure;Samples;Min_cycle;Max_cycle;Signal;HPM_P1;HPM_P2
2024/01/24 00:00:14;;;;;;;9.95;4.50;;;;;;;4.81;100.00;97884.69;5012767;28;20056;-72
2024/01/24 00:02:39;;;;;;;8.38;3.67;;;;;;;4.74;100.00;97893.25;5018956;28;20049;-72
2024/01/24 00:05:05;;;;;;;10.63;4.05;;;;;;;4.66;100.00;97897.44;5012415;28;20073;-73
2024/01/24 00:07:31;;;;;;;7.05;3.67;;;;;;;4.59;100.00;97899.72;5017565;28;20047;-72
2024/01/24 00:09:56;;;;;;;8.90;3.80;;;;;;;4.53;100.00;97885.44;5018797;28;20053;-73
2024/01/24 00:12:22;;;;;;;8.93;3.30;;;;;;;4.53;100.00;97874.59;5013724;28;20053;-73
2024/01/24 00:14:47;;;;;;;8.35;3.47;;;;;;;4.53;100.00;97868.38;5018761;28;20123;-73
2024/01/24 00:17:13;;;;;;;10.77;3.75;;;;;;;4.56;100.00;97868.56;5014036;28;20045;-73
2024/01/24 00:19:38;;;;;;;7.15;3.42;;;;;;;4.59;100.00;97848.16;5019010;28;20088;-72
2024/01/24 00:22:04;;;;;;;10.07;3.33;;;;;;;4.50;100.00;97841.84;5014486;28;20061;-73
2024/01/24 00:24:29;;;;;;;8.40;3.60;;;;;;;4.55;100.00;97845.25;5017661;28;20052;-72
2024/01/24 00:26:55;;;;;;;6.57;3.55;;;;;;;4.56;100.00;97848.78;5017028;28;20049;-73
2024/01/24 00:29:20;;;;;;;7.03;3.67;;;;;;;4.70;100.00;97841.47;5019257;28;20040;-72
2024/01/24 00:31:47;;;;;;;6.28;3.30;;;;;;;4.78;100.00;97859.75;5034229;28;20050;-74
2024/01/24 00:34:12;;;;;;;7.97;4.03;;;;;;;4.62;100.00;97844.88;4995474;28;20044;-74
2024/01/24 00:36:38;;;;;;;7.72;3.92;;;;;;;4.68;100.00;97845.56;5018095;28;20050;-75
2024/01/24 00:39:04;;;;;;;8.57;3.78;;;;;;;4.83;100.00;97855.34;5014035;28;20141;-76
2024/01/24 00:41:29;;;;;;;7.97;3.65;;;;;;;4.78;100.00;97840.75;5019926;28;20041;-71
2024/01/24 00:43:54;;;;;;;8.48;3.60;;;;;;;4.78;100.00;97839.97;5017403;28;20513;-72
2024/01/24 00:46:20;;;;;;;9.23;3.28;;;;;;;4.67;100.00;97827.69;5015295;28;20429;-74
2024/01/24 00:48:45;;;;;;;6.28;3.22;;;;;;;4.60;100.00;97831.59;5017605;28;20053;-75
2024/01/24 00:51:11;;;;;;;10.73;3.63;;;;;;;4.61;100.00;97829.72;5016674;28;20117;-74
2024/01/24 00:53:37;;;;;;;6.53;3.35;;;;;;;4.58;100.00;97833.00;5017511;28;20057;-73
2024/01/24 00:56:04;;;;;;;8.68;4.20;;;;;;;4.62;100.00;97833.22;5016861;28;20507;-70
2024/01/24 00:58:29;;;;;;;12.10;4.70;;;;;;;4.55;100.00;97833.59;5022792;28;20050;-73
2024/01/24 01:00:55;;;;;;;8.80;4.13;;;;;;;4.58;100.00;97820.25;5022674;28;20476;-74
2024/01/24 01:03:20;;;;;;;12.30;5.20;;;;;;;4.59;100.00;97812.91;5016515;28;20041;-74
2024/01/24 01:05:46;;;;;;;11.77;4.28;;;;;;;4.57;100.00;97802.38;5020504;28;20076;-74
2024/01/24 01:08:11;;;;;;;7.63;4.40;;;;;;;4.76;100.00;97796.03;5015130;28;20057;-75
2024/01/24 01:10:37;;;;;;;10.98;4.35;;;;;;;4.74;100.00;97804.47;5022537;28;20152;-74
2024/01/24 01:13:03;;;;;;;15.52;5.05;;;;;;;4.65;100.00;97787.28;5018809;28;20147;-71
2024/01/24 01:15:28;;;;;;;8.57;4.30;;;;;;;4.64;100.00;97779.44;5023367;28;20041;-73
2024/01/24 01:17:54;;;;;;;8.90;3.70;;;;;;;4.51;100.00;97781.84;5017199;28;20045;-73
2024/01/24 01:20:20;;;;;;;5.65;3.40;;;;;;;4.46;100.00;97781.94;5022193;28;20037;-72
2024/01/24 01:22:48;;;;;;;8.50;3.70;;;;;;;4.36;100.00;97772.09;5020744;28;20057;-73
2024/01/24 01:25:14;;;;;;;7.50;3.28;;;;;;;4.35;100.00;97783.25;5016686;28;20120;-70
2024/01/24 01:27:40;;;;;;;6.18;3.38;;;;;;;4.39;100.00;97782.34;5022557;28;20123;-72
2024/01/24 01:30:06;;;;;;;4.82;3.50;;;;;;;4.44;100.00;97792.28;5016366;28;20404;-74
2024/01/24 01:32:31;;;;;;;8.55;2.95;;;;;;;4.36;100.00;97774.00;5020930;28;20049;-73
2024/01/24 01:34:57;;;;;;;6.32;3.63;;;;;;;4.39;100.00;97779.63;5023114;28;20041;-75
2024/01/24 01:37:23;;;;;;;5.45;2.90;;;;;;;4.72;100.00;97774.13;5018701;28;20460;-74
2024/01/24 01:39:49;;;;;;;5.32;1.98;;;;;;;4.84;100.00;97754.59;5020771;28;20053;-74
2024/01/24 01:42:15;;;;;;;9.40;2.05;;;;;;;5.00;100.00;97748.84;5016259;28;20100;-73
2024/01/24 01:44:46;;;;;;;6.10;2.40;;;;;;;5.04;100.00;97744.41;5019868;28;20073;-73
2024/01/24 01:47:13;;;;;;;8.50;2.35;;;;;;;5.12;100.00;97736.34;5014805;28;20380;-74
2024/01/24 01:49:39;;;;;;;6.78;2.22;;;;;;;5.33;100.00;97730.47;5021852;28;20041;-75
2024/01/24 01:52:05;;;;;;;4.22;1.90;;;;;;;5.41;100.00;97732.44;5014832;28;20921;-74
2024/01/24 01:54:31;;;;;;;4.85;2.03;;;;;;;5.43;100.00;97729.44;5035176;28;20052;-73
2024/01/24 01:56:57;;;;;;;3.72;1.73;;;;;;;5.66;100.00;97725.59;5019788;28;20045;-73
2024/01/24 01:59:23;;;;;;;4.60;2.20;;;;;;;5.62;100.00;97721.09;5015414;28;20251;-73
2024/01/24 02:01:52;;;;;;;11.57;3.25;;;;;;;5.61;100.00;97719.50;5020859;28;20075;-72
2024/01/24 02:04:17;;;;;;;8.23;2.70;;;;;;;5.90;100.00;97722.56;5016175;28;20079;-74
2024/01/24 02:06:43;;;;;;;5.13;1.92;;;;;;;5.88;100.00;97716.63;5001868;28;20050;-75
2024/01/24 02:09:10;;;;;;;5.88;1.80;;;;;;;5.96;100.00;97719.75;5016689;28;20064;-74
2024/01/24 02:11:35;;;;;;;4.90;1.88;;;;;;;5.92;100.00;97727.69;5021077;28;20559;-74
2024/01/24 02:14:01;;;;;;;5.72;2.03;;;;;;;6.07;100.00;97713.75;5018339;28;20136;-72
2024/01/24 02:16:26;;;;;;;3.22;1.42;;;;;;;6.05;100.00;97712.44;5020603;28;20053;-72
2024/01/24 02:18:53;;;;;;;4.88;1.42;;;;;;;6.37;100.00;97710.50;5001342;28;20361;-71
2024/01/24 02:21:18;;;;;;;5.15;1.30;;;;;;;6.50;100.00;97712.34;5014882;28;20124;-73
2024/01/24 02:23:44;;;;;;;4.32;1.52;;;;;;;6.74;100.00;97719.28;5019520;28;20041;-70
2024/01/24 02:26:10;;;;;;;3.55;1.13;;;;;;;7.00;100.00;97722.84;5006765;28;20049;-71
2024/01/24 02:28:35;;;;;;;3.17;1.38;;;;;;;7.16;100.00;97742.25;5020052;28;20038;-70
2024/01/24 02:31:01;;;;;;;7.68;2.58;;;;;;;7.09;100.00;97733.75;5010977;28;20046;-71
2024/01/24 02:33:26;;;;;;;4.47;1.60;;;;;;;6.93;100.00;97735.34;5010000;28;20504;-72
2024/01/24 02:35:51;;;;;;;9.75;3.58;;;;;;;6.93;100.00;97730.69;5017095;28;20205;-72
2024/01/24 02:38:17;;;;;;;6.43;2.10;;;;;;;6.87;100.00;97718.34;5015486;28;20045;-73
2024/01/24 02:40:42;;;;;;;4.72;1.20;;;;;;;6.86;100.00;97719.44;5020119;28;20045;-72
2024/01/24 02:43:08;;;;;;;4.60;1.50;;;;;;;6.69;100.00;97718.28;5015337;28;20077;-70
2024/01/24 02:45:33;;;;;;;2.78;1.50;;;;;;;6.56;100.00;97711.06;5019985;28;20158;-72
2024/01/24 02:47:59;;;;;;;2.90;1.00;;;;;;;6.63;100.00;97711.41;5019382;28;20053;-72
2024/01/24 02:50:25;;;;;;;3.75;1.25;;;;;;;6.70;100.00;97700.06;5013765;28;20049;-72
2024/01/24 02:52:51;;;;;;;4.07;1.38;;;;;;;6.68;100.00;97713.97;5018107;28;20056;-72
2024/01/24 02:55:16;;;;;;;2.88;1.15;;;;;;;6.68;100.00;97710.44;5012583;28;20091;-72
2024/01/24 02:57:43;;;;;;;2.00;1.00;;;;;;;6.67;100.00;97698.75;5019677;28;20523;-72
2024/01/24 03:00:09;;;;;;;4.75;1.45;;;;;;;6.80;100.00;97697.00;5005547;28;20052;-72
2024/01/24 03:02:35;;;;;;;2.78;1.30;;;;;;;6.78;100.00;97690.28;5020395;28;20053;-72
2024/01/24 03:05:01;;;;;;;1.95;1.05;;;;;;;6.89;100.00;97689.66;5018350;28;20049;-69
2024/01/24 03:07:27;;;;;;;3.28;1.13;;;;;;;6.87;100.00;97683.72;5017224;28;20046;-72
2024/01/24 03:09:53;;;;;;;2.58;1.00;;;;;;;6.82;100.00;97685.81;5019971;28;20041;-72
2024/01/24 03:12:19;;;;;;;3.42;1.02;;;;;;;6.78;100.00;97696.53;5014184;28;20029;-73
2024/01/24 03:14:44;;;;;;;4.82;1.23;;;;;;;6.74;100.00;97692.06;5022122;28;20114;-74
2024/01/24 03:17:09;;;;;;;3.97;1.30;;;;;;;6.74;100.00;97690.13;5017524;28;20203;-74
2024/01/24 03:19:35;;;;;;;4.07;1.30;;;;;;;6.88;100.00;97677.19;5019072;28;20495;-74
2024/01/24 03:22:00;;;;;;;4.13;1.23;;;;;;;6.96;100.00;97685.69;5018177;28;20132;-73
2024/01/24 03:24:26;;;;;;;3.42;1.02;;;;;;;6.91;100.00;97691.28;5013387;28;20136;-73
2024/01/24 03:26:51;;;;;;;2.60;1.10;;;;;;;6.88;100.00;97701.69;5017544;28;20045;-73
2024/01/24 03:29:17;;;;;;;13.43;3.05;;;;;;;7.06;100.00;97696.28;5015436;28;20033;-73
2024/01/24 03:31:43;;;;;;;7.90;1.60;;;;;;;7.11;100.00;97678.94;5020442;28;20045;-74
2024/01/24 03:34:10;;;;;;;4.80;1.10;;;;;;;7.21;100.00;97675.91;5014664;28;20049;-73
2024/01/24 03:36:36;;;;;;;3.35;1.20;;;;;;;7.31;100.00;97678.34;5018662;28;20076;-74
2024/01/24 03:39:01;;;;;;;5.38;1.23;;;;;;;7.19;100.00;97664.53;4999951;28;20542;-72
2024/01/24 03:41:27;;;;;;;2.78;0.95;;;;;;;7.30;100.00;97670.47;5014915;28;20384;-72
2024/01/24 03:43:52;;;;;;;2.97;1.15;;;;;;;7.34;100.00;97660.53;5017823;28;20073;-74
2024/01/24 03:46:19;;;;;;;6.22;2.42;;;;;;;7.60;100.00;97677.66;5019571;28;20037;-74
2024/01/24 03:48:45;;;;;;;2.97;1.20;;;;;;;7.47;100.00;97665.00;5027467;28;20049;-72
2024/01/24 03:51:11;;;;;;;9.48;2.88;;;;;;;7.63;100.00;97668.03;5014555;28;20041;-75
2024/01/24 03:53:37;;;;;;;6.80;2.50;;;;;;;7.64;100.00;97669.63;5020032;28;20045;-74
2024/01/24 03:56:03;;;;;;;14.73;3.00;;;;;;;7.53;100.00;97682.00;5015741;28;20132;-71
2024/01/24 03:58:28;;;;;;;5.25;1.50;;;;;;;7.54;100.00;97689.84;5018699;28;20060;-74
2024/01/24 04:00:55;;;;;;;1.48;0.95;;;;;;;7.62;100.00;97693.69;5017092;28;20503;-74
2024/01/24 04:03:21;;;;;;;3.78;1.38;;;;;;;7.41;100.00;97697.06;5013366;28;20340;-73
2024/01/24 04:05:46;;;;;;;9.45;1.58;;;;;;;7.50;100.00;97688.88;5019257;28;20057;-74
2024/01/24 04:08:12;;;;;;;3.53;1.17;;;;;;;7.72;100.00;97687.88;5014707;28;20756;-73
2024/01/24 04:10:37;;;;;;;1.83;0.90;;;;;;;7.92;100.00;97686.41;5047433;28;20045;-74
2024/01/24 04:13:03;;;;;;;6.00;1.42;;;;;;;7.79;100.00;97684.69;5013877;28;20122;-70
2024/01/24 04:15:29;;;;;;;4.43;1.65;;;;;;;7.64;100.00;97683.25;5022873;28;20049;-73
2024/01/24 04:17:55;;;;;;;2.22;1.20;;;;;;;7.59;100.00;97684.22;5017516;28;20041;-73
2024/01/24 04:20:20;;;;;;;8.88;2.58;;;;;;;7.75;100.00;97691.91;5011911;28;20084;-73
2024/01/24 04:22:46;;;;;;;3.63;1.20;;;;;;;7.83;100.00;97691.06;5037838;28;20640;-72
2024/01/24 04:25:12;;;;;;;4.50;1.52;;;;;;;7.96;100.00;97700.19;5013691;28;20057;-73
2024/01/24 04:27:37;;;;;;;1.95;1.05;;;;;;;7.88;100.00;97692.84;5017754;28;20041;-75
2024/01/24 04:30:04;;;;;;;3.40;0.90;;;;;;;8.17;100.00;97676.53;5016409;28;20052;-69
2024/01/24 04:32:30;;;;;;;4.00;1.10;;;;;;;8.30;100.00;97674.75;5024030;28;20041;-73
2024/01/24 04:34:56;;;;;;;3.20;1.52;;;;;;;8.29;100.00;97677.78;5021898;28;20045;-74
2024/01/24 04:37:21;;;;;;;3.60;1.20;;;;;;;8.26;100.00;97667.53;5018749;28;20049;-73
2024/01/24 04:39:47;;;;;;;3.17;0.80;;;;;;;8.32;100.00;97668.94;5005433;28;20157;-73
2024/01/24 04:42:12;;;;;;;3.40;1.00;;;;;;;8.28;100.00;97674.25;5017115;28;20034;-74
2024/01/24 04:44:37;;;;;;;2.72;1.00;;;;;;;8.23;100.00;97677.19;5028953;28;20049;-74
2024/01/24 04:47:03;;;;;;;2.03;0.90;;;;;;;8.13;100.00;97675.59;5016448;28;20069;-72
2024/01/24 04:49:28;;;;;;;4.97;0.93;;;;;;;8.12;100.00;97678.63;5022426;28;20449;-74
2024/01/24 04:51:54;;;;;;;2.42;1.13;;;;;;;8.16;100.00;97672.22;5023023;28;20038;-74
2024/01/24 04:54:19;;;;;;;5.63;1.17;;;;;;;8.21;100.00;97668.50;5016196;28;20053;-73
2024/01/24 04:56:46;;;;;;;3.60;0.98;;;;;;;8.27;100.00;97675.38;5027392;28;20399;-73
2024/01/24 04:59:17;;;;;;;2.78;0.98;;;;;;;8.24;100.00;97662.38;5014685;28;22598;-73
2024/01/24 05:01:43;;;;;;;2.05;1.00;;;;;;;8.38;100.00;97679.34;5020776;28;20136;-73
2024/01/24 05:04:09;;;;;;;3.03;1.50;;;;;;;8.40;100.00;97682.53;5015730;28;20199;-74
2024/01/24 05:06:35;;;;;;;34.03;14.40;;;;;;;8.37;100.00;97671.47;5023032;28;20052;-74
2024/01/24 05:09:01;;;;;;;2.67;1.38;;;;;;;8.54;100.00;97665.97;5021310;28;20045;-73
2024/01/24 05:11:27;;;;;;;2.80;0.90;;;;;;;8.70;100.00;97659.97;5019922;28;20156;-72
2024/01/24 05:13:54;;;;;;;2.20;1.00;;;;;;;8.72;100.00;97669.41;5021846;28;20187;-72
2024/01/24 05:16:20;;;;;;;1.90;1.05;;;;;;;8.80;100.00;97675.94;5019948;28;20049;-73
2024/01/24 05:18:45;;;;;;;1.65;1.10;;;;;;;8.78;100.00;97639.97;5021117;28;20099;-73
2024/01/24 05:21:11;;;;;;;27.27;15.68;;;;;;;8.85;100.00;97653.91;5018261;28;20495;-72
2024/01/24 05:23:36;;;;;;;140.57;68.72;;;;;;;8.87;100.00;97646.16;5018333;28;20401;-73
2024/01/24 05:26:01;;;;;;;122.32;53.50;;;;;;;9.01;100.00;97656.06;5001443;28;20193;-72
2024/01/24 05:28:27;;;;;;;91.45;43.03;;;;;;;8.96;100.00;97657.03;5019235;28;20057;-73
2024/01/24 05:30:52;;;;;;;4.35;1.65;;;;;;;8.97;100.00;97664.91;5018973;28;20045;-71
2024/01/24 05:33:18;;;;;;;6.63;3.33;;;;;;;9.02;100.00;97679.50;5015137;28;20059;-73
2024/01/24 05:35:45;;;;;;;19.60;8.63;;;;;;;8.98;100.00;97679.34;5019572;28;20045;-73
2024/01/24 05:38:11;;;;;;;2.35;1.30;;;;;;;9.12;100.00;97703.72;5016433;28;20049;-73
2024/01/24 05:40:36;;;;;;;19.10;9.63;;;;;;;9.08;100.00;97694.56;5020524;28;20045;-72
2024/01/24 05:43:03;;;;;;;2.15;0.93;;;;;;;9.14;100.00;97698.69;5018380;28;20056;-72
2024/01/24 05:45:28;;;;;;;2.25;0.93;;;;;;;9.26;100.00;97701.50;5019045;28;20049;-73
2024/01/24 05:47:54;;;;;;;2.28;0.90;;;;;;;9.29;100.00;97695.38;5021443;28;20049;-72
2024/01/24 05:50:19;;;;;;;2.38;1.00;;;;;;;9.44;100.00;97702.19;5015193;28;20129;-73
2024/01/24 05:52:45;;;;;;;1.33;1.10;;;;;;;9.45;100.00;97711.97;5021907;28;20136;-74
2024/01/24 05:55:13;;;;;;;1.55;0.80;;;;;;;9.42;100.00;97720.03;5016193;28;20045;-72
2024/01/24 05:57:39;;;;;;;4.10;0.90;;;;;;;9.51;100.00;97721.56;5019812;28;20140;-73
2024/01/24 06:00:09;;;;;;;4.15;1.42;;;;;;;9.46;100.00;97734.66;5007103;28;20157;-74
2024/01/24 06:02:38;;;;;;;5.40;1.75;;;;;;;9.49;100.00;97733.97;5020996;28;20394;-71
2024/01/24 06:05:04;;;;;;;2.92;0.98;;;;;;;9.52;100.00;97728.63;5016577;28;20048;-70
2024/01/24 06:07:31;;;;;;;3.25;1.02;;;;;;;9.45;100.00;97728.38;5003660;28;20050;-73
2024/01/24 06:09:57;;;;;;;1.70;1.02;;;;;;;9.46;100.00;97731.94;5019842;28;20084;-73
2024/01/24 06:12:23;;;;;;;2.90;1.10;;;;;;;9.41;100.00;97741.13;5015034;28;20509;-73
2024/01/24 06:14:49;;;;;;;6.68;3.67;;;;;;;9.40;100.00;97735.97;5008247;28;20049;-73
2024/01/24 06:17:15;;;;;;;4.53;1.77;;;;;;;9.37;100.00;97734.72;5021384;28;20073;-72
2024/01/24 06:19:42;;;;;;;2.85;1.55;;;;;;;9.38;100.00;97731.66;5004370;28;20077;-72
2024/01/24 06:22:08;;;;;;;3.05;1.63;;;;;;;9.41;100.00;97721.19;4997374;28;20478;-75
2024/01/24 06:24:33;;;;;;;4.57;1.52;;;;;;;9.37;100.00;97721.06;5020438;28;20073;-72
2024/01/24 06:26:59;;;;;;;4.88;2.20;;;;;;;9.48;100.00;97719.50;5019199;28;20041;-72
2024/01/24 06:29:24;;;;;;;6.80;1.50;;;;;;;9.47;100.00;97717.09;5016523;28;20049;-72
2024/01/24 06:31:50;;;;;;;3.33;1.70;;;;;;;9.41;100.00;97716.50;5021213;28;20122;-72
2024/01/24 06:34:15;;;;;;;2.30;1.08;;;;;;;9.47;100.00;97730.78;5021208;28;20099;-71
2024/01/24 06:36:41;;;;;;;8.00;1.70;;;;;;;9.54;100.00;97728.31;5014677;28;20168;-72
2024/01/24 06:39:07;;;;;;;4.05;1.40;;;;;;;9.54;100.00;97731.84;5013620;28;20083;-72
2024/01/24 06:41:33;;;;;;;2.33;1.10;;;;;;;9.62;100.00;97735.66;5011448;28;20053;-73
2024/01/24 06:43:58;;;;;;;2.38;1.10;;;;;;;9.60;100.00;97737.09;5019374;28;20057;-73
2024/01/24 06:46:26;;;;;;;3.65;1.10;;;;;;;9.63;100.00;97747.38;5013727;28;20049;-72
2024/01/24 06:48:52;;;;;;;2.95;1.10;;;;;;;9.62;100.00;97743.06;5021446;28;20049;-72
2024/01/24 06:51:18;;;;;;;3.60;1.15;;;;;;;9.67;100.00;97751.03;5015186;28;20137;-73
2024/01/24 06:53:43;;;;;;;5.75;1.00;;;;;;;9.70;100.00;97762.09;5020902;28;20052;-71
2024/01/24 06:56:08;;;;;;;1.83;1.02;;;;;;;9.75;100.00;97747.44;5014002;28;20738;-71
2024/01/24 06:58:36;;;;;;;1.40;0.90;;;;;;;9.78;100.00;97760.47;5019796;28;20573;-71
2024/01/24 07:01:02;;;;;;;3.50;1.00;;;;;;;9.73;100.00;97760.66;5015960;28;20477;-71
2024/01/24 07:03:27;;;;;;;3.53;0.98;;;;;;;9.72;100.00;97762.59;5018377;28;20053;-72
2024/01/24 07:05:53;;;;;;;1.88;0.80;;;;;;;9.85;100.00;97762.63;5034385;28;20103;-72
2024/01/24 07:08:18;;;;;;;4.82;1.23;;;;;;;10.00;100.00;97761.22;5015115;28;20049;-71
2024/01/24 07:10:44;;;;;;;4.25;0.95;;;;;;;10.00;100.00;97766.69;5018661;28;20056;-72
2024/01/24 07:13:10;;;;;;;4.13;1.23;;;;;;;9.97;100.00;97754.47;5022463;28;20053;-72
2024/01/24 07:15:35;;;;;;;4.13;1.23;;;;;;;10.02;100.00;97751.53;5023443;28;20048;-73
2024/01/24 07:18:01;;;;;;;2.13;1.27;;;;;;;10.05;100.00;97755.56;5021921;28;20368;-73
2024/01/24 07:20:26;;;;;;;2.45;0.90;;;;;;;10.07;100.00;97764.22;5020557;28;20044;-71
2024/01/24 07:22:51;;;;;;;4.30;1.02;;;;;;;10.16;100.00;97777.81;5030288;28;20114;-73
2024/01/24 07:25:20;;;;;;;3.60;1.02;;;;;;;10.17;100.00;97782.94;4996576;28;20503;-71
2024/01/24 07:27:47;;;;;;;1.23;0.90;;;;;;;10.13;100.00;97779.28;5021268;28;20407;-72
2024/01/24 07:30:13;;;;;;;9.13;4.43;;;;;;;10.12;100.00;97769.50;5016521;28;20138;-72
2024/01/24 07:32:40;;;;;;;2.55;1.10;;;;;;;10.12;100.00;97769.50;5021584;28;20085;-71
2024/01/24 07:35:07;;;;;;;2.13;1.15;;;;;;;10.19;100.00;97768.91;5014465;28;20576;-71
2024/01/24 07:37:32;;;;;;;2.83;0.90;;;;;;;10.21;100.00;97781.16;5020602;28;20377;-72
2024/01/24 07:39:58;;;;;;;5.13;1.40;;;;;;;10.17;100.00;97780.19;5018782;28;20103;-71
2024/01/24 07:42:23;;;;;;;2.83;1.13;;;;;;;10.15;100.00;97790.69;5012823;28;20056;-71
2024/01/24 07:44:48;;;;;;;2.70;1.20;;;;;;;10.20;100.00;97797.91;5019305;28;20338;-72
2024/01/24 07:47:15;;;;;;;2.75;0.90;;;;;;;10.24;100.00;97802.34;5014830;28;20042;-72
2024/01/24 07:49:40;;;;;;;1.65;0.80;;;;;;;10.27;100.00;97804.44;5010129;28;20051;-71
2024/01/24 07:52:07;;;;;;;3.05;1.35;;;;;;;10.23;100.00;97800.78;5013870;28;20049;-70
2024/01/24 07:54:32;;;;;;;4.78;1.00;;;;;;;10.30;100.00;97800.22;5018725;28;20766;-71
2024/01/24 07:56:57;;;;;;;2.35;1.17;;;;;;;10.31;100.00;97796.38;5017554;28;20051;-72
2024/01/24 07:59:23;;;;;;;3.03;0.90;;;;;;;10.41;100.00;97792.41;5015350;28;20103;-73
2024/01/24 08:01:48;;;;;;;2.40;0.90;;;;;;;10.40;100.00;97807.22;5019166;28;20079;-71
2024/01/24 08:04:14;;;;;;;2.92;1.00;;;;;;;10.43;100.00;97798.34;5010776;28;20149;-71
2024/01/24 08:06:41;;;;;;;6.03;2.05;;;;;;;10.47;100.00;97807.47;5023283;28;20484;-72
2024/01/24 08:09:07;;;;;;;4.28;1.23;;;;;;;10.51;100.00;97786.47;5016465;28;20507;-73
2024/01/24 08:11:32;;;;;;;4.25;1.75;;;;;;;10.47;100.00;97796.53;5017921;28;20049;-72
2024/01/24 08:13:57;;;;;;;1.95;1.00;;;;;;;10.56;100.00;97790.97;5018101;28;20099;-72
2024/01/24 08:16:23;;;;;;;2.75;0.90;;;;;;;10.52;100.00;97799.84;5018248;28;20095;-71
2024/01/24 08:18:48;;;;;;;3.33;0.90;;;;;;;10.52;100.00;97786.16;5016788;28;20671;-71
2024/01/24 08:21:14;;;;;;;4.15;0.88;;;;;;;10.64;100.00;97782.63;5032201;28;20037;-71
2024/01/24 08:23:40;;;;;;;3.92;0.90;;;;;;;10.55;100.00;97781.91;5017972;28;20049;-70
2024/01/24 08:26:06;;;;;;;4.18;0.90;;;;;;;10.62;100.00;97776.69;5014665;28;20052;-70
2024/01/24 08:28:31;;;;;;;1.65;0.70;;;;;;;10.85;100.00;97781.72;5019752;28;20057;-71
2024/01/24 08:30:57;;;;;;;2.17;0.75;;;;;;;10.83;100.00;97770.31;5018257;28;20521;-69
2024/01/24 08:33:22;;;;;;;1.25;0.70;;;;;;;10.80;100.00;97771.00;5011305;28;20514;-71
2024/01/24 08:35:47;;;;;;;1.45;0.60;;;;;;;10.84;100.00;97780.13;5018531;28;20058;-71
2024/01/24 08:38:13;;;;;;;2.55;0.90;;;;;;;10.83;100.00;97771.13;5012599;28;20148;-70
2024/01/24 08:40:39;;;;;;;2.92;1.00;;;;;;;10.81;100.00;97780.81;5018751;28;20519;-70
2024/01/24 08:43:04;;;;;;;1.17;0.70;;;;;;;10.77;100.00;97786.19;5015594;28;20422;-70
2024/01/24 08:45:31;;;;;;;2.83;0.80;;;;;;;10.83;100.00;97786.75;5021578;28;20049;-70
2024/01/24 08:47:56;;;;;;;1.17;0.63;;;;;;;10.85;100.00;97788.00;5015161;28;20516;-69
2024/01/24 08:50:22;;;;;;;3.15;1.25;;;;;;;10.96;100.00;97785.63;5013531;28;20053;-69
2024/01/24 08:52:50;;;;;;;5.15;0.73;;;;;;;10.95;100.00;97791.44;5019862;28;20076;-72
2024/01/24 08:55:16;;;;;;;3.10;0.75;;;;;;;10.96;100.00;97784.81;5011674;28;20057;-71
2024/01/24 08:57:42;;;;;;;2.42;0.82;;;;;;;10.96;100.00;97793.03;5019909;28;20068;-70
2024/01/24 09:00:09;;;;;;;1.33;0.70;;;;;;;11.04;100.00;97786.66;5012814;28;20051;-70
2024/01/24 09:02:34;;;;;;;1.90;0.80;;;;;;;11.11;100.00;97797.84;5018355;28;20377;-70
2024/01/24 09:05:00;;;;;;;3.97;1.00;;;;;;;11.14;100.00;97799.09;5018917;28;20096;-72
2024/01/24 09:07:26;;;;;;;1.33;0.70;;;;;;;11.17;100.00;97796.47;5005061;28;20065;-70
2024/01/24 09:09:51;;;;;;;0.93;0.70;;;;;;;11.18;100.00;97809.06;5016036;28;20478;-71
2024/01/24 09:12:17;;;;;;;3.47;0.90;;;;;;;11.25;100.00;97792.81;5011967;28;20056;-71
2024/01/24 09:14:44;;;;;;;1.33;0.70;;;;;;;11.28;100.00;97794.06;5036160;28;20052;-71
2024/01/24 09:17:11;;;;;;;1.55;0.65;;;;;;;11.33;100.00;97788.34;5009508;28;20053;-70
2024/01/24 09:19:36;;;;;;;2.60;0.63;;;;;;;11.41;100.00;97801.13;5021517;28;20042;-71
2024/01/24 09:22:02;;;;;;;2.85;1.00;;;;;;;11.35;100.00;97791.53;5018871;28;20080;-71
2024/01/24 09:24:27;;;;;;;2.30;0.85;;;;;;;11.63;100.00;97772.41;5018109;28;20049;-72
2024/01/24 09:26:53;;;;;;;0.82;0.60;;;;;;;11.61;100.00;97773.88;5021008;28;20045;-71
2024/01/24 09:29:18;;;;;;;1.80;0.75;;;;;;;11.61;100.00;97765.66;5017837;28;20499;-73
2024/01/24 09:31:45;;;;;;;2.30;0.75;;;;;;;11.78;100.00;97787.34;5022576;28;20037;-72
2024/01/24 09:34:16;;;;;;;6.22;1.10;;;;;;;11.78;100.00;97781.84;5015415;28;20049;-72
2024/01/24 09:36:42;;;;;;;2.65;0.80;;;;;;;11.74;100.00;97782.88;5015301;28;20049;-74
2024/01/24 09:39:09;;;;;;;1.58;0.70;;;;;;;11.75;100.00;97762.53;5013932;28;20099;-72
2024/01/24 09:41:39;;;;;;;4.78;1.40;;;;;;;11.86;100.00;97780.09;5036168;28;20041;-70
2024/01/24 09:44:06;;;;;;;6.07;2.15;;;;;;;11.78;100.00;97783.81;5015319;28;20045;-71
2024/01/24 09:46:34;;;;;;;4.15;1.10;;;;;;;11.82;100.00;97777.25;5024380;28;20514;-72
2024/01/24 09:49:01;;;;;;;2.83;0.90;;;;;;;11.75;100.00;97779.78;5020633;28;20516;-72
2024/01/24 09:51:33;;;;;;;2.08;0.80;;;;;;;11.77;100.00;97788.47;5017645;28;20737;-70
2024/01/24 09:54:03;;;;;;;2.50;0.77;;;;;;;11.82;100.00;97796.47;5020221;28;20051;-72
2024/01/24 09:56:29;;;;;;;;;;;;;;;11.81;100.00;97791.31;5014041;28;20646;-72
2024/01/24 09:58:54;;;;;;;2.17;0.95;;;;;;;11.81;100.00;97764.69;5020239;28;19957;-71
2024/01/24 10:01:21;;;;;;;3.55;0.82;;;;;;;11.83;100.00;97784.34;5014435;28;20081;-71
2024/01/24 10:03:47;;;;;;;3.83;1.00;;;;;;;11.83;100.00;97783.56;5028959;28;20114;-72
2024/01/24 10:06:14;;;;;;;2.25;0.82;;;;;;;11.88;100.00;97769.56;5016278;28;20041;-71
2024/01/24 10:08:39;;;;;;;1.92;0.93;;;;;;;11.94;100.00;97762.72;5021915;28;20073;-71
2024/01/24 10:11:06;;;;;;;1.92;0.80;;;;;;;11.98;100.00;97749.09;5015509;28;20468;-71
2024/01/24 10:13:31;;;;;;;4.15;0.80;;;;;;;12.08;100.00;97756.81;5019038;28;20590;-70
2024/01/24 10:15:59;;;;;;;2.35;0.80;;;;;;;12.07;100.00;97766.22;5026580;28;20137;-72
2024/01/24 10:18:25;;;;;;;4.10;0.90;;;;;;;12.12;100.00;97768.72;5016005;28;20643;-73
2024/01/24 10:20:50;;;;;;;2.00;0.90;;;;;;;12.21;100.00;97768.56;5013822;28;20041;-73
2024/01/24 10:23:16;;;;;;;2.35;0.77;;;;;;;12.24;100.00;97771.41;5014936;28;20048;-72
2024/01/24 10:25:41;;;;;;;1.80;0.88;;;;;;;12.20;100.00;97784.22;5018917;28;20056;-72
2024/01/24 10:28:13;;;;;;;1.17;0.60;;;;;;;12.26;100.00;97772.97;5013012;28;20037;-72
2024/01/24 10:30:42;;;;;;;2.17;0.63;;;;;;;12.31;100.00;97768.03;5019914;28;20107;-74
2024/01/24 10:33:11;;;;;;;1.20;0.80;;;;;;;12.30;100.00;97768.38;5015880;28;20136;-72
2024/01/24 10:35:37;;;;;;;1.67;0.65;;;;;;;12.27;100.00;97782.81;5020707;28;20049;-72
2024/01/24 10:38:03;;;;;;;3.22;0.63;;;;;;;12.26;100.00;97759.25;5016117;28;20044;-72
2024/01/24 10:40:31;;;;;;;2.22;0.60;;;;;;;12.34;100.00;97750.06;5019611;28;20095;-72
2024/01/24 10:43:05;;;;;;;1.85;0.63;;;;;;;12.35;100.00;97784.59;5020145;28;20146;-72
2024/01/24 10:45:31;;;;;;;1.33;0.60;;;;;;;12.23;100.00;97779.97;5020752;28;20123;-72
2024/01/24 10:47:58;;;;;;;1.85;0.80;;;;;;;12.18;100.00;97778.28;5019504;28;20140;-72
2024/01/24 10:50:24;;;;;;;1.27;0.70;;;;;;;12.12;100.00;97778.88;5013538;28;20884;-72
2024/01/24 10:52:51;;;;;;;2.90;0.90;;;;;;;12.09;100.00;97769.41;5022246;28;20050;-71
2024/01/24 10:55:17;;;;;;;4.05;0.90;;;;;;;12.11;100.00;97747.88;5014306;28;20064;-72
2024/01/24 10:57:45;;;;;;;2.03;0.82;;;;;;;12.12;100.00;97744.00;5018427;28;20096;-71
2024/01/24 11:00:11;;;;;;;2.38;0.60;;;;;;;12.13;100.00;97750.28;5012633;28;20048;-71
2024/01/24 11:02:38;;;;;;;2.20;0.88;;;;;;;12.08;100.00;97751.31;5019362;28;20041;-72
2024/01/24 11:05:08;;;;;;;2.35;0.85;;;;;;;11.99;100.00;97754.25;5012343;28;20381;-71
2024/01/24 11:07:51;;;;;;;1.17;0.77;;;;;;;12.04;100.00;97762.19;5019650;28;20041;-71
2024/01/24 11:10:26;;;;;;;1.83;0.90;;;;;;;12.02;100.00;97753.50;5023176;28;20029;-71
2024/01/24 11:12:51;;;;;;;2.58;0.88;;;;;;;12.02;100.00;97771.94;5038038;28;20057;-72
2024/01/24 11:15:18;;;;;;;4.57;1.00;;;;;;;12.02;100.00;97755.47;5027505;28;20387;-71
2024/01/24 11:17:46;;;;;;;7.35;2.25;;;;;;;12.01;100.00;97759.34;5020203;28;20107;-71
2024/01/24 11:20:12;;;;;;;1.60;0.80;;;;;;;12.04;100.00;97756.72;5015802;28;20045;-72
2024/01/24 11:22:37;;;;;;;2.45;0.82;;;;;;;12.02;100.00;97741.75;5021383;28;20118;-72